createdAt,value
2017-07-30T00:01:28.591Z,6.40
2017-07-30T00:03:56.010Z,12.23
2017-07-30T00:06:23.415Z,9.13
2017-07-30T00:08:50.837Z,13.97
2017-07-30T00:11:18.247Z,7.50
2017-07-30T00:13:45.658Z,12.73
2017-07-30T00:16:13.843Z,7.50
2017-07-30T00:18:42.072Z,7.83
2017-07-30T00:21:09.478Z,12.03
2017-07-30T00:23:36.886Z,7.87
2017-07-30T00:26:04.294Z,8.43
2017-07-30T00:28:31.709Z,8.77
2017-07-30T00:30:59.131Z,9.20
2017-07-30T00:33:26.540Z,10.40
2017-07-30T00:35:54.745Z,10.07
2017-07-30T00:38:22.161Z,7.83
2017-07-30T00:40:50.354Z,10.73
2017-07-30T00:43:17.776Z,9.37
2017-07-30T00:45:45.399Z,14.60
2017-07-30T00:48:12.809Z,10.90
2017-07-30T00:50:40.994Z,24.83
2017-07-30T00:53:08.403Z,10.00
2017-07-30T00:55:35.815Z,12.23
2017-07-30T00:58:03.235Z,13.23
2017-07-30T01:00:31.402Z,8.50
2017-07-30T01:02:59.587Z,10.37
2017-07-30T01:05:27.754Z,9.20
2017-07-30T01:07:55.943Z,11.63
2017-07-30T01:10:23.364Z,10.70
2017-07-30T01:12:50.770Z,10.10
2017-07-30T01:15:18.194Z,10.83
2017-07-30T01:17:46.371Z,10.43
2017-07-30T01:20:14.588Z,7.50
2017-07-30T01:22:42.019Z,9.30
2017-07-30T01:25:09.444Z,13.13
2017-07-30T01:27:36.848Z,11.10
2017-07-30T01:30:04.265Z,13.97
2017-07-30T01:32:32.442Z,13.63
2017-07-30T01:35:00.626Z,13.23
2017-07-30T01:37:28.034Z,8.70
2017-07-30T01:39:55.484Z,9.47
2017-07-30T01:42:22.903Z,12.77
2017-07-30T01:44:50.358Z,9.73
2017-07-30T01:47:17.769Z,12.93
2017-07-30T01:49:45.183Z,7.87
2017-07-30T01:52:12.578Z,6.93
2017-07-30T01:54:40.003Z,15.63
2017-07-30T01:57:07.434Z,6.20
2017-07-30T01:59:34.844Z,11.50
2017-07-30T02:02:02.264Z,19.10
2017-07-30T02:04:29.700Z,14.93
2017-07-30T02:06:57.111Z,8.43
2017-07-30T02:09:24.518Z,13.53
2017-07-30T02:11:51.942Z,8.60
2017-07-30T02:14:19.355Z,10.63
2017-07-30T02:16:46.761Z,12.07
2017-07-30T02:19:14.166Z,9.63
2017-07-30T02:21:41.591Z,11.63
2017-07-30T02:24:09.014Z,10.37
2017-07-30T02:26:37.183Z,10.20
2017-07-30T02:29:05.375Z,11.37
2017-07-30T02:31:32.794Z,11.63
2017-07-30T02:34:00.207Z,11.83
2017-07-30T02:36:27.623Z,8.60
2017-07-30T02:38:55.841Z,11.27
2017-07-30T02:41:23.246Z,7.70
2017-07-30T02:43:51.418Z,8.53
2017-07-30T02:46:19.596Z,8.50
2017-07-30T02:48:47.770Z,8.50
2017-07-30T02:51:15.962Z,13.03
2017-07-30T02:53:43.377Z,14.70
2017-07-30T02:56:10.798Z,14.23
2017-07-30T02:58:38.210Z,10.37
2017-07-30T03:01:06.382Z,10.30
2017-07-30T03:03:35.166Z,13.60
2017-07-30T03:06:03.355Z,8.30
2017-07-30T03:08:30.754Z,9.40
2017-07-30T03:10:58.166Z,11.83
2017-07-30T03:13:25.584Z,14.43
2017-07-30T03:15:52.995Z,10.23
2017-07-30T03:18:20.419Z,8.70
2017-07-30T03:20:48.591Z,8.70
2017-07-30T03:23:16.771Z,11.23
2017-07-30T03:25:44.186Z,8.43
2017-07-30T03:28:11.765Z,7.60
2017-07-30T03:30:39.171Z,8.30
2017-07-30T03:33:06.576Z,7.57
2017-07-30T03:35:34.759Z,9.73
2017-07-30T03:38:02.960Z,11.80
2017-07-30T03:40:30.379Z,8.57
2017-07-30T03:42:58.563Z,11.70
2017-07-30T03:45:26.730Z,8.57
2017-07-30T03:47:54.902Z,15.10
2017-07-30T03:50:23.082Z,13.50
2017-07-30T03:52:50.539Z,10.50
2017-07-30T03:55:17.959Z,6.30
2017-07-30T03:57:45.366Z,13.20
2017-07-30T04:00:12.774Z,17.20
2017-07-30T04:02:40.187Z,13.10
2017-07-30T04:05:07.598Z,13.80
2017-07-30T04:07:35.769Z,11.10
2017-07-30T04:10:04.178Z,11.60
2017-07-30T04:12:31.681Z,8.77
2017-07-30T04:14:59.119Z,7.40
2017-07-30T04:17:26.536Z,10.20
2017-07-30T04:19:53.942Z,11.27
2017-07-30T04:22:21.354Z,8.20
2017-07-30T04:24:48.770Z,11.70
2017-07-30T04:27:16.227Z,12.90
2017-07-30T04:29:43.735Z,10.67
2017-07-30T04:32:11.146Z,8.07
2017-07-30T04:34:39.322Z,11.27
2017-07-30T04:37:07.495Z,9.77
2017-07-30T04:39:36.015Z,9.70
2017-07-30T04:42:03.430Z,10.87
2017-07-30T04:44:31.623Z,11.53
2017-07-30T04:46:59.044Z,10.13
2017-07-30T04:49:26.460Z,18.33
2017-07-30T04:51:53.922Z,11.07
2017-07-30T04:54:21.325Z,9.73
2017-07-30T04:56:49.686Z,11.17
2017-07-30T04:59:17.099Z,12.70
2017-07-30T05:01:44.506Z,13.20
2017-07-30T05:04:12.698Z,9.10
2017-07-30T05:06:40.115Z,14.10
2017-07-30T05:09:07.528Z,10.43
2017-07-30T05:11:34.943Z,11.30
2017-07-30T05:14:03.119Z,16.40
2017-07-30T05:16:31.298Z,16.07
2017-07-30T05:18:59.474Z,16.40
2017-07-30T05:21:27.678Z,12.60
2017-07-30T05:23:55.095Z,10.60
2017-07-30T05:26:23.267Z,13.67
2017-07-30T05:28:51.802Z,11.30
2017-07-30T05:31:19.217Z,12.90
2017-07-30T05:33:47.387Z,16.93
2017-07-30T05:36:15.575Z,12.10
2017-07-30T05:38:42.980Z,14.23
2017-07-30T05:41:10.391Z,9.87
2017-07-30T05:43:37.825Z,14.17
2017-07-30T05:46:05.999Z,13.13
2017-07-30T05:48:34.180Z,18.57
2017-07-30T05:51:01.597Z,14.17
2017-07-30T05:53:29.008Z,14.13
2017-07-30T05:55:56.430Z,13.40
2017-07-30T05:58:24.619Z,10.87
2017-07-30T06:00:52.027Z,8.47
2017-07-30T06:03:19.442Z,6.17
2017-07-30T06:05:46.862Z,10.80
2017-07-30T06:08:15.054Z,10.00
2017-07-30T06:10:42.465Z,10.17
2017-07-30T06:13:09.875Z,15.00
2017-07-30T06:15:37.291Z,14.30
2017-07-30T06:18:04.707Z,9.73
2017-07-30T06:20:32.121Z,9.30
2017-07-30T06:23:00.332Z,8.63
2017-07-30T06:25:27.743Z,8.50
2017-07-30T06:27:55.915Z,10.97
2017-07-30T06:30:24.100Z,11.80
2017-07-30T06:32:52.262Z,10.43
2017-07-30T06:35:20.463Z,10.67
2017-07-30T06:37:47.874Z,15.07
2017-07-30T06:40:15.278Z,15.30
2017-07-30T06:42:42.690Z,17.53
2017-07-30T06:45:10.875Z,16.20
2017-07-30T06:47:39.057Z,16.80
2017-07-30T06:50:07.222Z,11.33
2017-07-30T06:52:35.410Z,8.90
2017-07-30T06:55:03.111Z,7.90
2017-07-30T06:57:30.519Z,8.43
2017-07-30T06:59:57.926Z,8.83
2017-07-30T07:02:25.353Z,10.60
2017-07-30T07:04:52.767Z,9.60
2017-07-30T07:07:20.942Z,6.20
2017-07-30T07:09:49.127Z,8.37
2017-07-30T07:12:17.298Z,8.43
2017-07-30T07:14:44.710Z,12.60
2017-07-30T07:17:12.122Z,13.63
2017-07-30T07:19:39.538Z,10.67
2017-07-30T07:22:06.950Z,7.60
2017-07-30T07:24:34.366Z,9.97
2017-07-30T07:27:02.530Z,9.93
2017-07-30T07:29:30.706Z,6.53
2017-07-30T07:31:58.911Z,15.83
2017-07-30T07:34:26.339Z,6.83
2017-07-30T07:36:54.527Z,8.63
2017-07-30T07:39:21.930Z,6.37
2017-07-30T07:41:49.347Z,9.43
2017-07-30T07:44:16.755Z,11.17
2017-07-30T07:46:44.162Z,9.83
2017-07-30T07:49:11.568Z,7.13
2017-07-30T07:51:38.992Z,7.30
2017-07-30T07:54:06.420Z,9.33
2017-07-30T07:56:33.840Z,8.40
2017-07-30T07:59:02.010Z,7.83
2017-07-30T08:01:30.223Z,8.53
2017-07-30T08:03:57.626Z,8.43
2017-07-30T08:06:25.058Z,8.80
2017-07-30T08:08:52.463Z,10.70
2017-07-30T08:11:20.679Z,11.80
2017-07-30T08:13:48.087Z,9.80
2017-07-30T08:16:16.259Z,8.27
2017-07-30T08:18:44.431Z,8.63
2017-07-30T08:21:12.604Z,11.40
2017-07-30T08:23:40.782Z,7.47
2017-07-30T08:26:08.963Z,6.73
2017-07-30T08:28:37.002Z,8.87
2017-07-30T08:33:56.018Z,11.30
2017-07-30T08:36:23.436Z,7.77
2017-07-30T08:38:51.621Z,6.17
2017-07-30T08:41:19.040Z,7.00
2017-07-30T08:43:46.489Z,7.47
2017-07-30T08:46:13.916Z,8.20
2017-07-30T08:48:41.357Z,14.10
2017-07-30T08:51:08.776Z,5.37
2017-07-30T08:53:36.220Z,15.83
2017-07-30T08:56:03.682Z,6.43
2017-07-30T08:58:31.105Z,7.03
2017-07-30T09:00:58.535Z,6.07
2017-07-30T09:03:25.945Z,7.77
2017-07-30T09:05:53.367Z,8.20
2017-07-30T09:08:20.788Z,6.50
2017-07-30T09:10:48.218Z,5.80
2017-07-30T09:13:15.648Z,5.67
2017-07-30T09:15:43.064Z,7.10
2017-07-30T09:18:10.491Z,5.23
2017-07-30T09:20:37.909Z,5.90
2017-07-30T09:23:05.362Z,6.47
2017-07-30T09:25:32.780Z,8.70
2017-07-30T09:28:00.206Z,6.10
2017-07-30T09:30:27.620Z,9.40
2017-07-30T09:32:55.045Z,4.87
2017-07-30T09:35:22.470Z,7.20
2017-07-30T09:37:49.950Z,12.13
2017-07-30T09:40:17.474Z,9.93
2017-07-30T09:42:44.985Z,5.60
2017-07-30T09:45:12.498Z,6.27
2017-07-30T09:47:39.941Z,7.37
2017-07-30T09:50:07.356Z,6.40
2017-07-30T09:52:34.776Z,9.70
2017-07-30T09:55:03.043Z,4.77
2017-07-30T09:57:30.452Z,8.60
2017-07-30T09:59:57.873Z,4.37
2017-07-30T10:02:26.207Z,7.73
2017-07-30T10:04:53.692Z,5.97
2017-07-30T10:07:21.170Z,14.47
2017-07-30T10:09:49.399Z,8.43
2017-07-30T10:12:16.800Z,6.00
2017-07-30T10:14:44.984Z,6.13
2017-07-30T10:17:12.419Z,4.80
2017-07-30T10:19:40.602Z,4.13
2017-07-30T10:22:08.033Z,8.73
2017-07-30T10:24:35.470Z,6.30
2017-07-30T10:27:02.893Z,2.40
2017-07-30T10:29:30.313Z,4.10
2017-07-30T10:31:58.503Z,4.57
2017-07-30T10:34:25.933Z,5.73
2017-07-30T10:36:53.352Z,5.23
2017-07-30T10:39:20.860Z,3.70
2017-07-30T10:41:49.072Z,11.87
2017-07-30T10:44:16.544Z,3.60
2017-07-30T10:46:43.997Z,5.83
2017-07-30T10:49:11.427Z,5.20
2017-07-30T10:51:38.856Z,6.70
2017-07-30T10:54:07.036Z,4.47
2017-07-30T10:56:34.513Z,6.73
2017-07-30T10:59:01.926Z,8.53
2017-07-30T11:01:29.344Z,3.50
2017-07-30T11:03:56.771Z,5.50
2017-07-30T11:06:24.198Z,3.80
2017-07-30T11:08:52.415Z,5.43
2017-07-30T11:11:19.881Z,4.90
2017-07-30T11:13:47.283Z,2.47
2017-07-30T11:16:15.485Z,6.53
2017-07-30T11:18:42.900Z,4.33
2017-07-30T11:21:10.333Z,2.30
2017-07-30T11:23:37.781Z,5.67
2017-07-30T11:26:05.203Z,2.83
2017-07-30T11:28:32.624Z,5.00
2017-07-30T11:31:00.846Z,2.80
2017-07-30T11:33:28.316Z,3.10
2017-07-30T11:35:55.735Z,4.70
2017-07-30T11:38:23.155Z,6.03
2017-07-30T11:40:51.337Z,3.87
2017-07-30T11:43:18.752Z,6.57
2017-07-30T11:45:46.168Z,2.97
2017-07-30T11:48:13.591Z,2.70
2017-07-30T11:50:41.777Z,4.10
2017-07-30T11:53:09.952Z,3.03
2017-07-30T11:55:37.438Z,3.50
2017-07-30T11:58:04.841Z,3.27
2017-07-30T12:00:32.256Z,5.00
2017-07-30T12:02:59.680Z,3.10
2017-07-30T12:05:27.100Z,4.57
2017-07-30T12:07:55.290Z,4.27
2017-07-30T12:10:23.472Z,7.37
2017-07-30T12:12:51.677Z,6.53
2017-07-30T12:15:19.088Z,4.20
2017-07-30T12:17:47.273Z,3.53
2017-07-30T12:20:14.691Z,5.23
2017-07-30T12:22:42.112Z,6.87
2017-07-30T12:25:09.588Z,3.90
2017-07-30T12:27:37.017Z,4.03
2017-07-30T12:30:04.468Z,3.90
2017-07-30T12:32:32.654Z,4.20
2017-07-30T12:35:00.080Z,2.40
2017-07-30T12:37:28.292Z,4.30
2017-07-30T12:39:55.748Z,2.47
2017-07-30T12:42:23.244Z,5.20
2017-07-30T12:44:50.724Z,9.20
2017-07-30T12:47:18.121Z,2.70
2017-07-30T12:49:45.537Z,8.07
2017-07-30T12:52:13.725Z,2.53
2017-07-30T12:54:41.166Z,4.83
2017-07-30T12:57:09.340Z,4.23
2017-07-30T12:59:36.768Z,3.10
2017-07-30T13:02:04.177Z,3.03
2017-07-30T13:04:31.609Z,3.53
2017-07-30T13:06:59.781Z,2.63
2017-07-30T13:09:27.217Z,3.73
2017-07-30T13:11:54.735Z,5.90
2017-07-30T13:14:22.153Z,4.00
2017-07-30T13:16:49.588Z,3.20
2017-07-30T13:19:17.005Z,3.03
2017-07-30T13:21:44.433Z,5.53
2017-07-30T13:24:11.914Z,3.33
2017-07-30T13:26:39.338Z,3.43
2017-07-30T13:29:06.755Z,6.93
2017-07-30T13:31:34.181Z,3.57
2017-07-30T13:34:01.592Z,5.73
2017-07-30T13:36:29.097Z,3.00
2017-07-30T13:38:56.552Z,6.87
2017-07-30T13:41:23.980Z,4.87
2017-07-30T13:43:51.424Z,6.27
2017-07-30T13:46:18.922Z,4.87
2017-07-30T13:48:46.427Z,3.03
2017-07-30T13:51:14.649Z,3.73
2017-07-30T13:53:42.078Z,5.33
2017-07-30T13:56:10.305Z,2.87
2017-07-30T13:58:37.722Z,4.03
2017-07-30T14:01:05.153Z,3.07
2017-07-30T14:03:32.577Z,2.90
2017-07-30T14:06:00.006Z,2.70
2017-07-30T14:08:27.433Z,2.80
2017-07-30T14:10:55.657Z,3.80
2017-07-30T14:13:23.127Z,3.10
2017-07-30T14:15:50.544Z,2.63
2017-07-30T14:18:17.987Z,3.43
2017-07-30T14:20:46.168Z,2.80
2017-07-30T14:23:13.596Z,2.67
2017-07-30T14:25:41.798Z,3.57
2017-07-30T14:28:09.226Z,3.17
2017-07-30T14:30:37.474Z,5.00
2017-07-30T14:33:04.897Z,4.20
2017-07-30T14:35:32.317Z,4.17
2017-07-30T14:37:59.847Z,3.60
2017-07-30T14:40:27.265Z,3.50
2017-07-30T14:42:54.712Z,7.17
2017-07-30T14:45:22.135Z,3.10
2017-07-30T14:47:50.326Z,7.23
2017-07-30T14:50:17.754Z,5.87
2017-07-30T14:52:45.201Z,4.57
2017-07-30T14:55:12.618Z,4.40
2017-07-30T14:57:40.036Z,8.33
2017-07-30T15:00:08.234Z,8.30
2017-07-30T15:02:35.684Z,4.70
2017-07-30T15:05:03.128Z,4.27
2017-07-30T15:07:31.348Z,6.77
2017-07-30T15:09:58.777Z,6.20
2017-07-30T15:12:26.198Z,3.23
2017-07-30T15:14:53.624Z,4.27
2017-07-30T15:17:21.053Z,3.00
2017-07-30T15:19:48.522Z,10.67
2017-07-30T15:22:15.942Z,10.00
2017-07-30T15:24:44.124Z,4.30
2017-07-30T15:27:11.568Z,4.03
2017-07-30T15:29:39.756Z,6.40
2017-07-30T15:32:07.200Z,5.80
2017-07-30T15:34:35.393Z,5.97
2017-07-30T15:37:03.585Z,5.10
2017-07-30T15:39:31.021Z,3.97
2017-07-30T15:41:59.232Z,5.57
2017-07-30T15:44:26.654Z,4.97
2017-07-30T15:46:54.095Z,6.67
2017-07-30T15:49:21.520Z,5.00
2017-07-30T15:51:48.955Z,7.13
2017-07-30T15:54:16.381Z,4.13
2017-07-30T15:56:43.812Z,3.63
2017-07-30T15:59:11.242Z,3.53
2017-07-30T16:01:39.442Z,6.73
2017-07-30T16:04:06.861Z,4.20
2017-07-30T16:06:35.058Z,3.50
2017-07-30T16:09:02.489Z,4.63
2017-07-30T16:11:29.905Z,4.77
2017-07-30T16:13:57.350Z,8.40
2017-07-30T16:16:24.783Z,5.37
2017-07-30T16:18:52.214Z,7.87
2017-07-30T16:21:19.637Z,4.73
2017-07-30T16:23:47.076Z,5.20
2017-07-30T16:26:14.497Z,5.40
2017-07-30T16:28:42.684Z,2.63
2017-07-30T16:31:10.107Z,6.50
2017-07-30T16:33:37.532Z,4.93
2017-07-30T16:36:04.957Z,3.63
2017-07-30T16:38:32.377Z,7.03
2017-07-30T16:41:00.595Z,12.07
2017-07-30T16:43:28.001Z,9.90
2017-07-30T16:45:55.421Z,4.37
2017-07-30T16:48:22.840Z,7.20
2017-07-30T16:50:50.265Z,5.20
2017-07-30T16:53:18.460Z,2.27
2017-07-30T16:55:46.683Z,3.60
2017-07-30T16:58:14.151Z,2.80
2017-07-30T17:00:41.574Z,8.70
2017-07-30T17:03:08.997Z,4.40
2017-07-30T17:05:37.177Z,2.83
2017-07-30T17:08:05.359Z,7.43
2017-07-30T17:10:32.784Z,5.07
2017-07-30T17:13:00.208Z,6.57
2017-07-30T17:15:27.616Z,4.90
2017-07-30T17:17:55.049Z,3.30
2017-07-30T17:20:22.483Z,5.00
2017-07-30T17:22:49.950Z,3.70
2017-07-30T17:25:17.376Z,10.57
2017-07-30T17:27:44.802Z,7.40
2017-07-30T17:30:12.242Z,7.00
2017-07-30T17:32:40.438Z,6.73
2017-07-30T17:35:07.855Z,8.73
2017-07-30T17:37:35.303Z,4.10
2017-07-30T17:40:02.715Z,6.17
2017-07-30T17:42:30.137Z,5.23
2017-07-30T17:44:58.396Z,4.50
2017-07-30T17:47:25.821Z,7.57
2017-07-30T17:49:53.258Z,5.23
2017-07-30T17:52:20.726Z,5.57
2017-07-30T17:54:48.145Z,5.33
2017-07-30T17:57:15.585Z,6.60
2017-07-30T17:59:43.818Z,6.50
2017-07-30T18:02:11.251Z,3.40
2017-07-30T18:04:38.680Z,6.90
2017-07-30T18:07:06.856Z,12.07
2017-07-30T18:09:34.288Z,7.63
2017-07-30T18:12:01.705Z,7.53
2017-07-30T18:17:01.409Z,4.67
2017-07-30T18:19:28.825Z,5.50
2017-07-30T18:21:56.282Z,5.60
2017-07-30T18:24:23.693Z,9.50
2017-07-30T18:26:51.118Z,5.03
2017-07-30T18:29:19.300Z,19.53
2017-07-30T18:31:46.728Z,4.10
2017-07-30T18:34:14.910Z,13.40
2017-07-30T18:36:43.091Z,6.23
2017-07-30T18:39:10.507Z,3.20
2017-07-30T18:41:37.946Z,4.77
2017-07-30T18:44:05.367Z,12.67
2017-07-30T18:46:32.800Z,6.80
2017-07-30T18:49:01.013Z,10.37
2017-07-30T18:51:28.418Z,9.33
2017-07-30T18:53:55.837Z,5.97
2017-07-30T18:56:23.253Z,5.50
2017-07-30T18:58:50.678Z,12.50
2017-07-30T19:01:18.117Z,6.30
2017-07-30T19:03:45.528Z,16.33
2017-07-30T19:06:12.941Z,9.13
2017-07-30T19:08:40.402Z,7.53
2017-07-30T19:11:07.820Z,4.77
2017-07-30T19:13:35.390Z,5.80
2017-07-30T19:16:02.830Z,8.10
2017-07-30T19:18:30.290Z,6.40
2017-07-30T19:20:57.764Z,9.80
2017-07-30T19:23:25.184Z,2.23
2017-07-30T19:25:52.596Z,4.37
2017-07-30T19:28:20.070Z,3.47
2017-07-30T19:30:48.279Z,8.53
2017-07-30T19:33:15.706Z,3.43
2017-07-30T19:35:43.917Z,7.07
2017-07-30T19:38:11.333Z,7.20
2017-07-30T19:40:39.518Z,5.37
2017-07-30T19:43:07.697Z,2.70
2017-07-30T19:45:35.125Z,12.93
2017-07-30T19:48:03.324Z,9.60
2017-07-30T19:50:30.748Z,3.30
2017-07-30T19:52:58.175Z,3.90
2017-07-30T19:55:25.602Z,4.20
2017-07-30T19:57:53.041Z,10.57
2017-07-30T20:00:21.277Z,6.83
2017-07-30T20:02:48.708Z,6.03
2017-07-30T20:05:16.137Z,3.43
2017-07-30T20:07:43.577Z,3.00
2017-07-30T20:10:11.770Z,7.60
2017-07-30T20:12:39.200Z,5.80
2017-07-30T20:15:07.432Z,4.30
2017-07-30T20:17:34.870Z,3.73
2017-07-30T20:20:02.297Z,12.73
2017-07-30T20:22:30.493Z,5.63
2017-07-30T20:24:57.973Z,7.60
2017-07-30T20:27:25.395Z,3.10
2017-07-30T20:29:52.809Z,12.00
2017-07-30T20:32:20.241Z,8.10
2017-07-30T20:34:47.673Z,8.30
2017-07-30T20:37:15.111Z,3.83
2017-07-30T20:39:42.546Z,5.17
2017-07-30T20:42:10.761Z,6.97
2017-07-30T20:44:38.202Z,6.07
2017-07-30T20:47:06.393Z,8.67
2017-07-30T20:49:33.841Z,4.60
2017-07-30T20:52:01.270Z,3.80
2017-07-30T20:54:29.623Z,6.50
2017-07-30T20:56:57.057Z,5.40
2017-07-30T20:59:24.495Z,8.07
2017-07-30T21:01:52.071Z,11.80
2017-07-30T21:04:19.517Z,15.77
2017-07-30T21:06:46.956Z,21.27
2017-07-30T21:09:14.387Z,44.53
2017-07-30T21:11:42.618Z,43.70
2017-07-30T21:14:10.096Z,40.10
2017-07-30T21:16:37.521Z,37.83
2017-07-30T21:19:04.974Z,42.63
2017-07-30T21:21:32.441Z,33.90
2017-07-30T21:23:59.886Z,32.43
2017-07-30T21:26:27.305Z,32.53
2017-07-30T21:28:55.522Z,35.23
2017-07-30T21:31:22.934Z,24.00
2017-07-30T21:33:50.357Z,18.63
2017-07-30T21:36:17.795Z,15.67
2017-07-30T21:38:45.225Z,13.07
2017-07-30T21:41:12.664Z,8.87
2017-07-30T21:43:40.069Z,9.17
2017-07-30T21:46:07.507Z,5.77
2017-07-30T21:48:34.924Z,12.93
2017-07-30T21:51:02.369Z,5.77
2017-07-30T21:53:30.548Z,7.83
2017-07-30T21:55:57.980Z,7.13
2017-07-30T21:58:25.421Z,5.60
2017-07-30T22:00:52.845Z,5.50
2017-07-30T22:03:20.307Z,3.73
2017-07-30T22:05:47.740Z,6.67
2017-07-30T22:08:15.160Z,6.23
2017-07-30T22:10:42.612Z,4.90
2017-07-30T22:13:10.042Z,4.90
2017-07-30T22:15:37.446Z,7.70
2017-07-30T22:18:04.970Z,11.47
2017-07-30T22:20:32.381Z,5.63
2017-07-30T22:22:59.808Z,3.93
2017-07-30T22:25:28.117Z,4.20
2017-07-30T22:27:55.561Z,4.57
2017-07-30T22:30:22.980Z,15.90
2017-07-30T22:32:50.401Z,5.53
2017-07-30T22:35:17.819Z,4.33
2017-07-30T22:37:46.009Z,5.63
2017-07-30T22:40:13.439Z,6.07
2017-07-30T22:42:42.246Z,4.50
2017-07-30T22:45:09.675Z,4.43
2017-07-30T22:47:37.869Z,13.03
2017-07-30T22:50:06.106Z,4.63
2017-07-30T22:52:33.563Z,2.73
2017-07-30T22:55:00.968Z,9.63
2017-07-30T22:57:28.397Z,4.60
2017-07-30T22:59:56.596Z,6.87
2017-07-30T23:02:24.007Z,4.70
2017-07-30T23:04:51.545Z,4.27
2017-07-30T23:07:18.948Z,6.10
2017-07-30T23:12:23.115Z,5.40
2017-07-30T23:14:50.536Z,4.83
2017-07-30T23:17:17.964Z,4.93
2017-07-30T23:19:46.173Z,8.60
2017-07-30T23:22:13.660Z,6.93
2017-07-30T23:24:41.092Z,6.33
2017-07-30T23:27:08.585Z,6.83
2017-07-30T23:29:36.039Z,4.70
2017-07-30T23:32:03.460Z,8.03
2017-07-30T23:34:31.013Z,6.93
2017-07-30T23:36:58.442Z,6.53
2017-07-30T23:39:25.849Z,3.70
2017-07-30T23:41:53.263Z,4.53
2017-07-30T23:44:21.533Z,5.30
2017-07-30T23:46:49.712Z,14.20
2017-07-30T23:49:17.911Z,5.77
2017-07-30T23:51:45.337Z,7.53
2017-07-30T23:54:13.518Z,5.37
2017-07-30T23:56:40.967Z,7.90
2017-07-30T23:59:08.408Z,4.50
